ADDS METAR Data

Data at: 0746 UTC 24 Oct 2017

METAR for:CYZX (Greenwood (Mil), NS, CN)
Text:CYZX 240730Z 00000KT 10SM -DZ OVC008 11/10 A3024 RMK SF8 WNDY HILL UNAVBL SLP242
Temperature: 11.0°C ( 52°F)
Dewpoint: 10.0°C ( 50°F) [RH = 94%]
Pressure (altimeter):30.24 inches Hg (1024.1 mb) [Sea level pressure: 1024.2 mb]
Winds:calm
Visibility:10 or more sm (16+ km)
Ceiling:800 feet AGL
Clouds: overcast cloud deck at 800 feet AGL
Weather:-DZ (light drizzle)